sensor_id;sensor_type;location;lat;lon;timestamp;P1;durP1;ratioP1;P2;durP2;ratioP2
75236;SDS011;63826;48.100;-1.670;2022-10-23T00:01:11;2.28;;;0.88;;
75236;SDS011;63826;48.100;-1.670;2022-10-23T00:03:37;2.78;;;0.60;;
75236;SDS011;63826;48.100;-1.670;2022-10-23T00:06:03;2.38;;;0.77;;
75236;SDS011;63826;48.100;-1.670;2022-10-23T00:08:29;5.53;;;0.80;;
75236;SDS011;63826;48.100;-1.670;2022-10-23T00:10:55;3.17;;;0.90;;
75236;SDS011;63826;48.100;-1.670;2022-10-23T00:13:21;2.73;;;0.90;;
75236;SDS011;63826;48.100;-1.670;2022-10-23T00:15:47;2.72;;;0.60;;
75236;SDS011;63826;48.100;-1.670;2022-10-23T00:18:13;2.22;;;0.75;;
75236;SDS011;63826;48.100;-1.670;2022-10-23T00:20:39;3.05;;;0.80;;
75236;SDS011;63826;48.100;-1.670;2022-10-23T00:23:05;2.45;;;0.70;;
75236;SDS011;63826;48.100;-1.670;2022-10-23T00:25:31;2.83;;;0.60;;
75236;SDS011;63826;48.100;-1.670;2022-10-23T00:27:57;2.60;;;0.70;;
75236;SDS011;63826;48.100;-1.670;2022-10-23T00:30:23;2.72;;;0.82;;
75236;SDS011;63826;48.100;-1.670;2022-10-23T00:32:49;3.58;;;0.63;;
75236;SDS011;63826;48.100;-1.670;2022-10-23T00:35:16;2.60;;;0.68;;
75236;SDS011;63826;48.100;-1.670;2022-10-23T00:37:42;1.93;;;0.60;;
75236;SDS011;63826;48.100;-1.670;2022-10-23T00:40:08;2.33;;;0.68;;
75236;SDS011;63826;48.100;-1.670;2022-10-23T00:42:35;1.75;;;0.65;;
75236;SDS011;63826;48.100;-1.670;2022-10-23T00:45:08;2.22;;;0.70;;
75236;SDS011;63826;48.100;-1.670;2022-10-23T00:47:35;3.15;;;0.70;;
75236;SDS011;63826;48.100;-1.670;2022-10-23T00:50:01;2.20;;;0.67;;
75236;SDS011;63826;48.100;-1.670;2022-10-23T00:52:28;2.22;;;0.60;;
75236;SDS011;63826;48.100;-1.670;2022-10-23T00:54:54;1.88;;;0.70;;
75236;SDS011;63826;48.100;-1.670;2022-10-23T00:57:20;2.92;;;0.60;;
75236;SDS011;63826;48.100;-1.670;2022-10-23T00:59:46;1.73;;;0.63;;
75236;SDS011;63826;48.100;-1.670;2022-10-23T01:02:13;3.47;;;0.80;;
75236;SDS011;63826;48.100;-1.670;2022-10-23T01:04:39;2.17;;;0.52;;
75236;SDS011;63826;48.100;-1.670;2022-10-23T01:14:43;2.13;;;0.60;;
75236;SDS011;63826;48.100;-1.670;2022-10-23T01:24:55;1.87;;;0.50;;
75236;SDS011;63826;48.100;-1.670;2022-10-23T01:27:38;2.22;;;0.60;;
75236;SDS011;63826;48.100;-1.670;2022-10-23T01:30:11;2.75;;;0.60;;
75236;SDS011;63826;48.100;-1.670;2022-10-23T01:32:43;2.15;;;0.55;;
75236;SDS011;63826;48.100;-1.670;2022-10-23T01:35:13;2.25;;;0.70;;
75236;SDS011;63826;48.100;-1.670;2022-10-23T01:37:43;1.37;;;0.47;;
75236;SDS011;63826;48.100;-1.670;2022-10-23T01:40:21;3.00;;;0.60;;
75236;SDS011;63826;48.100;-1.670;2022-10-23T01:42:49;2.20;;;0.70;;
75236;SDS011;63826;48.100;-1.670;2022-10-23T01:45:23;2.42;;;0.57;;
75236;SDS011;63826;48.100;-1.670;2022-10-23T01:47:50;2.90;;;0.55;;
75236;SDS011;63826;48.100;-1.670;2022-10-23T01:50:18;1.53;;;0.60;;
75236;SDS011;63826;48.100;-1.670;2022-10-23T01:52:45;1.60;;;0.47;;
75236;SDS011;63826;48.100;-1.670;2022-10-23T01:55:11;2.03;;;0.63;;
75236;SDS011;63826;48.100;-1.670;2022-10-23T01:57:38;2.15;;;0.60;;
75236;SDS011;63826;48.100;-1.670;2022-10-23T02:00:06;1.25;;;0.35;;
75236;SDS011;63826;48.100;-1.670;2022-10-23T02:02:33;2.23;;;0.60;;
75236;SDS011;63826;48.100;-1.670;2022-10-23T02:07:33;1.77;;;0.52;;
75236;SDS011;63826;48.100;-1.670;2022-10-23T02:10:00;1.90;;;0.60;;
75236;SDS011;63826;48.100;-1.670;2022-10-23T02:13:02;1.35;;;0.50;;
75236;SDS011;63826;48.100;-1.670;2022-10-23T02:15:30;2.43;;;0.50;;
75236;SDS011;63826;48.100;-1.670;2022-10-23T02:20:45;2.22;;;0.57;;
75236;SDS011;63826;48.100;-1.670;2022-10-23T02:23:18;3.30;;;0.60;;
75236;SDS011;63826;48.100;-1.670;2022-10-23T02:25:56;2.17;;;0.60;;
75236;SDS011;63826;48.100;-1.670;2022-10-23T02:28:24;1.00;;;0.30;;
75236;SDS011;63826;48.100;-1.670;2022-10-23T02:30:50;2.40;;;0.50;;
75236;SDS011;63826;48.100;-1.670;2022-10-23T02:33:16;2.17;;;0.50;;
75236;SDS011;63826;48.100;-1.670;2022-10-23T02:35:44;2.58;;;0.50;;
75236;SDS011;63826;48.100;-1.670;2022-10-23T02:40:56;1.10;;;0.40;;
75236;SDS011;63826;48.100;-1.670;2022-10-23T02:43:23;1.42;;;0.43;;
75236;SDS011;63826;48.100;-1.670;2022-10-23T02:45:55;2.45;;;0.50;;
75236;SDS011;63826;48.100;-1.670;2022-10-23T02:48:27;1.60;;;0.45;;
75236;SDS011;63826;48.100;-1.670;2022-10-23T02:56:07;3.20;;;0.60;;
75236;SDS011;63826;48.100;-1.670;2022-10-23T03:01:20;2.22;;;0.50;;
75236;SDS011;63826;48.100;-1.670;2022-10-23T03:03:54;1.67;;;0.50;;
75236;SDS011;63826;48.100;-1.670;2022-10-23T03:06:21;1.05;;;0.40;;
75236;SDS011;63826;48.100;-1.670;2022-10-23T03:08:49;2.50;;;0.45;;
75236;SDS011;63826;48.100;-1.670;2022-10-23T03:11:17;2.20;;;0.50;;
75236;SDS011;63826;48.100;-1.670;2022-10-23T03:13:43;1.50;;;0.40;;
75236;SDS011;63826;48.100;-1.670;2022-10-23T03:16:09;1.30;;;0.30;;
75236;SDS011;63826;48.100;-1.670;2022-10-23T03:18:35;2.22;;;0.50;;
75236;SDS011;63826;48.100;-1.670;2022-10-23T03:21:01;1.98;;;0.60;;
75236;SDS011;63826;48.100;-1.670;2022-10-23T03:23:27;1.67;;;0.50;;
75236;SDS011;63826;48.100;-1.670;2022-10-23T03:25:53;2.23;;;0.60;;
75236;SDS011;63826;48.100;-1.670;2022-10-23T03:28:20;2.00;;;0.52;;
75236;SDS011;63826;48.100;-1.670;2022-10-23T03:30:46;1.95;;;0.50;;
75236;SDS011;63826;48.100;-1.670;2022-10-23T03:33:12;1.80;;;0.40;;
75236;SDS011;63826;48.100;-1.670;2022-10-23T03:35:38;1.60;;;0.50;;
75236;SDS011;63826;48.100;-1.670;2022-10-23T03:38:04;1.63;;;0.50;;
75236;SDS011;63826;48.100;-1.670;2022-10-23T03:40:30;2.27;;;0.40;;
75236;SDS011;63826;48.100;-1.670;2022-10-23T03:42:56;1.52;;;0.57;;
75236;SDS011;63826;48.100;-1.670;2022-10-23T03:45:22;2.03;;;0.50;;
75236;SDS011;63826;48.100;-1.670;2022-10-23T03:47:48;2.03;;;0.50;;
75236;SDS011;63826;48.100;-1.670;2022-10-23T03:50:15;1.88;;;0.40;;
75236;SDS011;63826;48.100;-1.670;2022-10-23T03:52:41;1.90;;;0.40;;
75236;SDS011;63826;48.100;-1.670;2022-10-23T03:55:07;1.67;;;0.60;;
75236;SDS011;63826;48.100;-1.670;2022-10-23T03:57:33;2.65;;;0.50;;
75236;SDS011;63826;48.100;-1.670;2022-10-23T03:59:59;1.90;;;0.50;;
75236;SDS011;63826;48.100;-1.670;2022-10-23T04:02:25;1.60;;;0.50;;
75236;SDS011;63826;48.100;-1.670;2022-10-23T04:04:51;2.03;;;0.43;;
75236;SDS011;63826;48.100;-1.670;2022-10-23T04:07:18;1.40;;;0.30;;
75236;SDS011;63826;48.100;-1.670;2022-10-23T04:09:44;1.25;;;0.35;;
75236;SDS011;63826;48.100;-1.670;2022-10-23T04:12:10;1.73;;;0.40;;
75236;SDS011;63826;48.100;-1.670;2022-10-23T04:14:36;1.57;;;0.47;;
75236;SDS011;63826;48.100;-1.670;2022-10-23T04:17:03;2.03;;;0.50;;
75236;SDS011;63826;48.100;-1.670;2022-10-23T04:19:29;2.60;;;0.45;;
75236;SDS011;63826;48.100;-1.670;2022-10-23T04:21:55;1.42;;;0.50;;
75236;SDS011;63826;48.100;-1.670;2022-10-23T04:24:21;2.73;;;0.60;;
75236;SDS011;63826;48.100;-1.670;2022-10-23T04:26:47;1.58;;;0.50;;
75236;SDS011;63826;48.100;-1.670;2022-10-23T04:29:13;2.50;;;0.60;;
75236;SDS011;63826;48.100;-1.670;2022-10-23T04:31:39;1.55;;;0.45;;
75236;SDS011;63826;48.100;-1.670;2022-10-23T04:34:05;1.70;;;0.57;;
75236;SDS011;63826;48.100;-1.670;2022-10-23T04:36:31;2.03;;;0.55;;
75236;SDS011;63826;48.100;-1.670;2022-10-23T04:38:57;1.27;;;0.40;;
75236;SDS011;63826;48.100;-1.670;2022-10-23T04:41:23;2.05;;;0.50;;
75236;SDS011;63826;48.100;-1.670;2022-10-23T04:43:49;2.15;;;0.52;;
75236;SDS011;63826;48.100;-1.670;2022-10-23T04:46:15;1.40;;;0.40;;
75236;SDS011;63826;48.100;-1.670;2022-10-23T04:48:41;2.22;;;0.50;;
75236;SDS011;63826;48.100;-1.670;2022-10-23T04:51:08;1.52;;;0.50;;
75236;SDS011;63826;48.100;-1.670;2022-10-23T04:53:34;1.75;;;0.60;;
75236;SDS011;63826;48.100;-1.670;2022-10-23T04:56:00;2.00;;;0.60;;
75236;SDS011;63826;48.100;-1.670;2022-10-23T04:58:27;1.38;;;0.50;;
75236;SDS011;63826;48.100;-1.670;2022-10-23T05:00:53;2.10;;;0.43;;
75236;SDS011;63826;48.100;-1.670;2022-10-23T05:03:20;3.35;;;0.60;;
75236;SDS011;63826;48.100;-1.670;2022-10-23T05:05:46;1.90;;;0.40;;
75236;SDS011;63826;48.100;-1.670;2022-10-23T05:08:12;1.50;;;0.50;;
75236;SDS011;63826;48.100;-1.670;2022-10-23T05:10:39;2.30;;;0.50;;
75236;SDS011;63826;48.100;-1.670;2022-10-23T05:13:05;2.22;;;0.65;;
75236;SDS011;63826;48.100;-1.670;2022-10-23T05:15:31;1.92;;;0.50;;
75236;SDS011;63826;48.100;-1.670;2022-10-23T05:17:59;1.95;;;0.40;;
75236;SDS011;63826;48.100;-1.670;2022-10-23T05:20:27;2.30;;;0.38;;
75236;SDS011;63826;48.100;-1.670;2022-10-23T05:22:54;3.58;;;0.50;;
75236;SDS011;63826;48.100;-1.670;2022-10-23T05:25:21;2.08;;;0.57;;
75236;SDS011;63826;48.100;-1.670;2022-10-23T05:27:47;2.70;;;0.63;;
75236;SDS011;63826;48.100;-1.670;2022-10-23T05:30:13;2.42;;;0.70;;
75236;SDS011;63826;48.100;-1.670;2022-10-23T05:32:39;2.13;;;0.50;;
75236;SDS011;63826;48.100;-1.670;2022-10-23T05:35:06;1.25;;;0.40;;
75236;SDS011;63826;48.100;-1.670;2022-10-23T05:37:33;2.55;;;0.45;;
75236;SDS011;63826;48.100;-1.670;2022-10-23T05:39:59;1.67;;;0.60;;
75236;SDS011;63826;48.100;-1.670;2022-10-23T05:42:25;2.17;;;0.60;;
75236;SDS011;63826;48.100;-1.670;2022-10-23T05:44:51;2.30;;;0.52;;
75236;SDS011;63826;48.100;-1.670;2022-10-23T05:47:17;2.03;;;0.52;;
75236;SDS011;63826;48.100;-1.670;2022-10-23T05:49:43;1.85;;;0.50;;
75236;SDS011;63826;48.100;-1.670;2022-10-23T05:52:12;2.77;;;0.40;;
75236;SDS011;63826;48.100;-1.670;2022-10-23T05:54:38;2.50;;;0.70;;
75236;SDS011;63826;48.100;-1.670;2022-10-23T05:57:04;2.15;;;0.60;;
75236;SDS011;63826;48.100;-1.670;2022-10-23T05:59:30;3.20;;;0.60;;
75236;SDS011;63826;48.100;-1.670;2022-10-23T06:01:56;2.13;;;0.50;;
75236;SDS011;63826;48.100;-1.670;2022-10-23T06:04:22;1.17;;;0.40;;
75236;SDS011;63826;48.100;-1.670;2022-10-23T06:06:48;1.85;;;0.60;;
75236;SDS011;63826;48.100;-1.670;2022-10-23T06:09:14;2.03;;;0.57;;
75236;SDS011;63826;48.100;-1.670;2022-10-23T06:11:40;2.88;;;0.60;;
75236;SDS011;63826;48.100;-1.670;2022-10-23T06:14:06;2.97;;;0.70;;
75236;SDS011;63826;48.100;-1.670;2022-10-23T06:16:33;1.80;;;0.50;;
75236;SDS011;63826;48.100;-1.670;2022-10-23T06:18:58;2.10;;;0.60;;
75236;SDS011;63826;48.100;-1.670;2022-10-23T06:21:25;1.30;;;0.50;;
75236;SDS011;63826;48.100;-1.670;2022-10-23T06:23:51;2.40;;;0.50;;
75236;SDS011;63826;48.100;-1.670;2022-10-23T06:26:17;2.53;;;0.50;;
75236;SDS011;63826;48.100;-1.670;2022-10-23T06:28:44;2.13;;;0.52;;
75236;SDS011;63826;48.100;-1.670;2022-10-23T06:31:11;2.35;;;0.70;;
75236;SDS011;63826;48.100;-1.670;2022-10-23T06:33:37;2.25;;;0.60;;
75236;SDS011;63826;48.100;-1.670;2022-10-23T06:36:03;2.17;;;0.50;;
75236;SDS011;63826;48.100;-1.670;2022-10-23T06:38:33;2.92;;;0.65;;
75236;SDS011;63826;48.100;-1.670;2022-10-23T06:41:01;2.00;;;0.60;;
75236;SDS011;63826;48.100;-1.670;2022-10-23T06:43:27;2.13;;;0.50;;
75236;SDS011;63826;48.100;-1.670;2022-10-23T06:45:53;1.75;;;0.50;;
75236;SDS011;63826;48.100;-1.670;2022-10-23T06:48:19;2.23;;;0.70;;
75236;SDS011;63826;48.100;-1.670;2022-10-23T06:50:45;1.15;;;0.50;;
75236;SDS011;63826;48.100;-1.670;2022-10-23T06:53:11;3.85;;;0.80;;
75236;SDS011;63826;48.100;-1.670;2022-10-23T06:55:37;2.28;;;0.63;;
75236;SDS011;63826;48.100;-1.670;2022-10-23T06:58:04;1.75;;;0.60;;
75236;SDS011;63826;48.100;-1.670;2022-10-23T07:00:34;2.37;;;0.60;;
75236;SDS011;63826;48.100;-1.670;2022-10-23T07:03:00;2.25;;;0.80;;
75236;SDS011;63826;48.100;-1.670;2022-10-23T07:05:26;2.40;;;0.60;;
75236;SDS011;63826;48.100;-1.670;2022-10-23T07:07:52;1.48;;;0.50;;
75236;SDS011;63826;48.100;-1.670;2022-10-23T07:10:18;1.77;;;0.60;;
75236;SDS011;63826;48.100;-1.670;2022-10-23T07:12:44;2.40;;;0.50;;
75236;SDS011;63826;48.100;-1.670;2022-10-23T07:15:12;3.05;;;0.60;;
75236;SDS011;63826;48.100;-1.670;2022-10-23T07:17:38;2.10;;;0.60;;
75236;SDS011;63826;48.100;-1.670;2022-10-23T07:20:04;2.37;;;0.60;;
75236;SDS011;63826;48.100;-1.670;2022-10-23T07:22:30;3.90;;;0.50;;
75236;SDS011;63826;48.100;-1.670;2022-10-23T07:24:56;2.90;;;0.80;;
75236;SDS011;63826;48.100;-1.670;2022-10-23T07:27:22;2.35;;;0.50;;
75236;SDS011;63826;48.100;-1.670;2022-10-23T07:29:49;1.95;;;0.55;;
75236;SDS011;63826;48.100;-1.670;2022-10-23T07:32:15;1.67;;;0.43;;
75236;SDS011;63826;48.100;-1.670;2022-10-23T07:34:41;3.13;;;0.60;;
75236;SDS011;63826;48.100;-1.670;2022-10-23T07:37:07;2.13;;;0.70;;
75236;SDS011;63826;48.100;-1.670;2022-10-23T07:39:33;1.52;;;0.50;;
75236;SDS011;63826;48.100;-1.670;2022-10-23T07:41:59;2.58;;;0.60;;
75236;SDS011;63826;48.100;-1.670;2022-10-23T07:44:25;2.50;;;0.60;;
75236;SDS011;63826;48.100;-1.670;2022-10-23T07:46:51;1.92;;;0.52;;
75236;SDS011;63826;48.100;-1.670;2022-10-23T07:49:17;2.72;;;0.80;;
75236;SDS011;63826;48.100;-1.670;2022-10-23T07:51:43;2.13;;;0.50;;
75236;SDS011;63826;48.100;-1.670;2022-10-23T07:54:09;2.30;;;0.60;;
75236;SDS011;63826;48.100;-1.670;2022-10-23T07:56:35;2.58;;;0.57;;
75236;SDS011;63826;48.100;-1.670;2022-10-23T07:59:01;1.98;;;0.60;;
75236;SDS011;63826;48.100;-1.670;2022-10-23T08:01:36;2.33;;;0.60;;
75236;SDS011;63826;48.100;-1.670;2022-10-23T08:04:02;3.38;;;0.90;;
75236;SDS011;63826;48.100;-1.670;2022-10-23T08:06:29;2.17;;;0.83;;
75236;SDS011;63826;48.100;-1.670;2022-10-23T08:08:55;1.63;;;0.70;;
75236;SDS011;63826;48.100;-1.670;2022-10-23T08:11:22;2.88;;;0.90;;
75236;SDS011;63826;48.100;-1.670;2022-10-23T08:13:51;1.63;;;0.70;;
75236;SDS011;63826;48.100;-1.670;2022-10-23T08:16:17;2.08;;;0.50;;
75236;SDS011;63826;48.100;-1.670;2022-10-23T08:18:43;2.50;;;0.60;;
75236;SDS011;63826;48.100;-1.670;2022-10-23T08:21:09;2.33;;;0.70;;
75236;SDS011;63826;48.100;-1.670;2022-10-23T08:23:35;2.20;;;0.77;;
75236;SDS011;63826;48.100;-1.670;2022-10-23T08:26:02;2.40;;;0.60;;
75236;SDS011;63826;48.100;-1.670;2022-10-23T08:28:29;2.00;;;0.80;;
75236;SDS011;63826;48.100;-1.670;2022-10-23T08:30:56;2.13;;;0.63;;
75236;SDS011;63826;48.100;-1.670;2022-10-23T08:33:23;2.53;;;0.75;;
75236;SDS011;63826;48.100;-1.670;2022-10-23T08:35:49;3.65;;;0.65;;
75236;SDS011;63826;48.100;-1.670;2022-10-23T08:38:15;2.08;;;0.70;;
75236;SDS011;63826;48.100;-1.670;2022-10-23T08:40:45;1.80;;;0.70;;
75236;SDS011;63826;48.100;-1.670;2022-10-23T08:43:14;3.03;;;0.90;;
75236;SDS011;63826;48.100;-1.670;2022-10-23T08:48:32;2.15;;;0.70;;
75236;SDS011;63826;48.100;-1.670;2022-10-23T08:50:57;3.28;;;0.63;;
75236;SDS011;63826;48.100;-1.670;2022-10-23T08:53:25;1.55;;;0.60;;
75236;SDS011;63826;48.100;-1.670;2022-10-23T08:56:04;3.23;;;0.80;;
75236;SDS011;63826;48.100;-1.670;2022-10-23T08:59:14;1.73;;;0.60;;
75236;SDS011;63826;48.100;-1.670;2022-10-23T09:01:31;2.25;;;0.60;;
75236;SDS011;63826;48.100;-1.670;2022-10-23T09:03:59;1.92;;;0.70;;
75236;SDS011;63826;48.100;-1.670;2022-10-23T09:06:31;2.55;;;0.80;;
75236;SDS011;63826;48.100;-1.670;2022-10-23T09:08:58;2.40;;;0.80;;
75236;SDS011;63826;48.100;-1.670;2022-10-23T09:19:15;2.60;;;0.70;;
75236;SDS011;63826;48.100;-1.670;2022-10-23T09:21:43;3.15;;;0.77;;
75236;SDS011;63826;48.100;-1.670;2022-10-23T09:24:12;1.60;;;0.60;;
75236;SDS011;63826;48.100;-1.670;2022-10-23T09:26:41;2.38;;;0.70;;
75236;SDS011;63826;48.100;-1.670;2022-10-23T09:29:21;2.20;;;0.70;;
75236;SDS011;63826;48.100;-1.670;2022-10-23T09:31:51;3.33;;;0.63;;
75236;SDS011;63826;48.100;-1.670;2022-10-23T09:34:19;3.63;;;0.75;;
75236;SDS011;63826;48.100;-1.670;2022-10-23T09:36:49;2.90;;;0.60;;
75236;SDS011;63826;48.100;-1.670;2022-10-23T09:39:24;1.83;;;0.63;;
75236;SDS011;63826;48.100;-1.670;2022-10-23T09:41:50;2.65;;;0.60;;
75236;SDS011;63826;48.100;-1.670;2022-10-23T09:44:20;1.42;;;0.60;;
75236;SDS011;63826;48.100;-1.670;2022-10-23T09:46:48;3.00;;;0.65;;
75236;SDS011;63826;48.100;-1.670;2022-10-23T09:49:33;2.65;;;0.70;;
75236;SDS011;63826;48.100;-1.670;2022-10-23T09:52:03;2.65;;;0.80;;
75236;SDS011;63826;48.100;-1.670;2022-10-23T09:54:31;2.25;;;0.77;;
75236;SDS011;63826;48.100;-1.670;2022-10-23T09:57:03;2.10;;;0.73;;
75236;SDS011;63826;48.100;-1.670;2022-10-23T09:59:30;3.08;;;0.80;;
75236;SDS011;63826;48.100;-1.670;2022-10-23T10:01:58;2.38;;;0.60;;
75236;SDS011;63826;48.100;-1.670;2022-10-23T10:04:38;2.15;;;0.70;;
75236;SDS011;63826;48.100;-1.670;2022-10-23T10:07:11;1.85;;;0.60;;
75236;SDS011;63826;48.100;-1.670;2022-10-23T10:09:40;2.37;;;0.70;;
75236;SDS011;63826;48.100;-1.670;2022-10-23T10:12:29;2.55;;;0.60;;
75236;SDS011;63826;48.100;-1.670;2022-10-23T10:15:03;3.53;;;0.60;;
75236;SDS011;63826;48.100;-1.670;2022-10-23T10:20:09;3.00;;;0.67;;
75236;SDS011;63826;48.100;-1.670;2022-10-23T10:25:15;3.08;;;0.80;;
75236;SDS011;63826;48.100;-1.670;2022-10-23T10:40:33;2.42;;;0.70;;
75236;SDS011;63826;48.100;-1.670;2022-10-23T10:45:33;2.57;;;0.73;;
75236;SDS011;63826;48.100;-1.670;2022-10-23T10:48:06;3.33;;;0.70;;
75236;SDS011;63826;48.100;-1.670;2022-10-23T10:53:10;2.50;;;0.60;;
75236;SDS011;63826;48.100;-1.670;2022-10-23T10:55:41;3.97;;;0.68;;
75236;SDS011;63826;48.100;-1.670;2022-10-23T10:58:54;3.20;;;0.70;;
75236;SDS011;63826;48.100;-1.670;2022-10-23T11:00:55;2.50;;;0.63;;
75236;SDS011;63826;48.100;-1.670;2022-10-23T11:05:48;1.70;;;0.70;;
75236;SDS011;63826;48.100;-1.670;2022-10-23T11:10:53;3.50;;;0.90;;
75236;SDS011;63826;48.100;-1.670;2022-10-23T11:13:25;3.30;;;0.70;;
75236;SDS011;63826;48.100;-1.670;2022-10-23T11:15:53;2.40;;;0.70;;
75236;SDS011;63826;48.100;-1.670;2022-10-23T11:18:24;2.20;;;0.65;;
75236;SDS011;63826;48.100;-1.670;2022-10-23T11:31:20;4.50;;;0.90;;
75236;SDS011;63826;48.100;-1.670;2022-10-23T11:39:04;4.68;;;0.90;;
75236;SDS011;63826;48.100;-1.670;2022-10-23T11:41:31;9.43;;;1.42;;
75236;SDS011;63826;48.100;-1.670;2022-10-23T11:43:59;9.48;;;0.88;;
75236;SDS011;63826;48.100;-1.670;2022-10-23T11:48:56;6.97;;;1.10;;
75236;SDS011;63826;48.100;-1.670;2022-10-23T11:54:04;6.75;;;1.25;;
75236;SDS011;63826;48.100;-1.670;2022-10-23T11:56:31;6.15;;;0.73;;
75236;SDS011;63826;48.100;-1.670;2022-10-23T11:58:58;4.63;;;0.90;;
75236;SDS011;63826;48.100;-1.670;2022-10-23T12:09:40;9.52;;;1.02;;
75236;SDS011;63826;48.100;-1.670;2022-10-23T12:14:35;5.88;;;1.13;;
75236;SDS011;63826;48.100;-1.670;2022-10-23T12:17:02;6.65;;;1.08;;
75236;SDS011;63826;48.100;-1.670;2022-10-23T12:19:46;5.18;;;0.90;;
75236;SDS011;63826;48.100;-1.670;2022-10-23T12:22:12;5.97;;;1.10;;
75236;SDS011;63826;48.100;-1.670;2022-10-23T12:24:56;5.65;;;0.88;;
75236;SDS011;63826;48.100;-1.670;2022-10-23T12:30:12;9.35;;;1.25;;
75236;SDS011;63826;48.100;-1.670;2022-10-23T12:35:57;7.20;;;1.10;;
75236;SDS011;63826;48.100;-1.670;2022-10-23T12:40:39;9.32;;;1.08;;
75236;SDS011;63826;48.100;-1.670;2022-10-23T12:43:19;10.18;;;1.20;;
75236;SDS011;63826;48.100;-1.670;2022-10-23T12:45:46;7.03;;;1.00;;
75236;SDS011;63826;48.100;-1.670;2022-10-23T12:48:18;6.88;;;1.15;;
75236;SDS011;63826;48.100;-1.670;2022-10-23T12:50:48;6.37;;;0.93;;
75236;SDS011;63826;48.100;-1.670;2022-10-23T12:53:15;7.78;;;1.10;;
75236;SDS011;63826;48.100;-1.670;2022-10-23T12:55:59;5.13;;;0.68;;
75236;SDS011;63826;48.100;-1.670;2022-10-23T12:58:30;7.60;;;0.95;;
75236;SDS011;63826;48.100;-1.670;2022-10-23T13:01:05;8.57;;;0.90;;
75236;SDS011;63826;48.100;-1.670;2022-10-23T13:03:31;4.03;;;0.50;;
75236;SDS011;63826;48.100;-1.670;2022-10-23T13:05:59;6.70;;;0.77;;
75236;SDS011;63826;48.100;-1.670;2022-10-23T13:08:34;5.72;;;0.80;;
75236;SDS011;63826;48.100;-1.670;2022-10-23T13:11:01;5.22;;;0.77;;
75236;SDS011;63826;48.100;-1.670;2022-10-23T13:13:27;6.40;;;0.85;;
75236;SDS011;63826;48.100;-1.670;2022-10-23T13:15:54;4.83;;;0.60;;
75236;SDS011;63826;48.100;-1.670;2022-10-23T13:18:20;5.05;;;0.65;;
75236;SDS011;63826;48.100;-1.670;2022-10-23T13:25:53;4.25;;;0.60;;
75236;SDS011;63826;48.100;-1.670;2022-10-23T13:28:33;6.30;;;0.67;;
75236;SDS011;63826;48.100;-1.670;2022-10-23T13:33:47;3.03;;;0.50;;
75236;SDS011;63826;48.100;-1.670;2022-10-23T13:38:43;3.20;;;0.40;;
75236;SDS011;63826;48.100;-1.670;2022-10-23T13:41:13;4.83;;;0.60;;
75236;SDS011;63826;48.100;-1.670;2022-10-23T13:43:40;3.50;;;0.50;;
75236;SDS011;63826;48.100;-1.670;2022-10-23T13:46:12;4.93;;;0.40;;
75236;SDS011;63826;48.100;-1.670;2022-10-23T13:48:50;3.10;;;0.60;;
75236;SDS011;63826;48.100;-1.670;2022-10-23T13:51:55;5.07;;;0.50;;
75236;SDS011;63826;48.100;-1.670;2022-10-23T13:54:22;4.30;;;0.53;;
75236;SDS011;63826;48.100;-1.670;2022-10-23T13:56:48;4.50;;;0.38;;
75236;SDS011;63826;48.100;-1.670;2022-10-23T13:59:14;5.18;;;0.50;;
75236;SDS011;63826;48.100;-1.670;2022-10-23T14:01:41;4.25;;;0.50;;
75236;SDS011;63826;48.100;-1.670;2022-10-23T14:04:07;6.55;;;0.63;;
75236;SDS011;63826;48.100;-1.670;2022-10-23T14:06:33;4.45;;;0.60;;
75236;SDS011;63826;48.100;-1.670;2022-10-23T14:09:01;3.17;;;0.30;;
75236;SDS011;63826;48.100;-1.670;2022-10-23T14:11:28;3.33;;;0.32;;
75236;SDS011;63826;48.100;-1.670;2022-10-23T14:13:53;3.53;;;0.50;;
75236;SDS011;63826;48.100;-1.670;2022-10-23T14:16:19;3.70;;;0.60;;
75236;SDS011;63826;48.100;-1.670;2022-10-23T14:18:46;4.18;;;0.40;;
75236;SDS011;63826;48.100;-1.670;2022-10-23T14:21:13;4.13;;;0.45;;
75236;SDS011;63826;48.100;-1.670;2022-10-23T14:23:39;3.08;;;0.40;;
75236;SDS011;63826;48.100;-1.670;2022-10-23T14:26:09;3.15;;;0.50;;
75236;SDS011;63826;48.100;-1.670;2022-10-23T14:28:35;4.87;;;0.30;;
75236;SDS011;63826;48.100;-1.670;2022-10-23T14:31:05;4.68;;;0.30;;
75236;SDS011;63826;48.100;-1.670;2022-10-23T14:33:32;3.85;;;0.40;;
75236;SDS011;63826;48.100;-1.670;2022-10-23T14:35:58;3.67;;;0.30;;
75236;SDS011;63826;48.100;-1.670;2022-10-23T14:38:24;3.42;;;0.40;;
75236;SDS011;63826;48.100;-1.670;2022-10-23T14:40:50;3.77;;;0.53;;
75236;SDS011;63826;48.100;-1.670;2022-10-23T14:43:16;2.47;;;0.30;;
75236;SDS011;63826;48.100;-1.670;2022-10-23T14:45:42;3.00;;;0.32;;
75236;SDS011;63826;48.100;-1.670;2022-10-23T14:48:08;1.85;;;0.30;;
75236;SDS011;63826;48.100;-1.670;2022-10-23T14:50:35;4.37;;;0.37;;
75236;SDS011;63826;48.100;-1.670;2022-10-23T14:53:01;4.65;;;0.30;;
75236;SDS011;63826;48.100;-1.670;2022-10-23T14:55:27;2.78;;;0.30;;
75236;SDS011;63826;48.100;-1.670;2022-10-23T14:57:53;3.83;;;0.50;;
75236;SDS011;63826;48.100;-1.670;2022-10-23T15:00:19;2.65;;;0.30;;
75236;SDS011;63826;48.100;-1.670;2022-10-23T15:02:46;4.35;;;0.47;;
75236;SDS011;63826;48.100;-1.670;2022-10-23T15:05:12;4.70;;;0.60;;
75236;SDS011;63826;48.100;-1.670;2022-10-23T15:07:38;4.32;;;0.50;;
75236;SDS011;63826;48.100;-1.670;2022-10-23T15:10:04;3.83;;;0.40;;
75236;SDS011;63826;48.100;-1.670;2022-10-23T15:12:30;4.45;;;0.50;;
75236;SDS011;63826;48.100;-1.670;2022-10-23T15:14:57;4.35;;;0.43;;
75236;SDS011;63826;48.100;-1.670;2022-10-23T15:17:22;3.08;;;0.45;;
75236;SDS011;63826;48.100;-1.670;2022-10-23T15:19:48;4.40;;;0.60;;
75236;SDS011;63826;48.100;-1.670;2022-10-23T15:22:14;5.18;;;0.50;;
75236;SDS011;63826;48.100;-1.670;2022-10-23T15:24:40;2.88;;;0.47;;
75236;SDS011;63826;48.100;-1.670;2022-10-23T15:27:07;4.73;;;0.40;;
75236;SDS011;63826;48.100;-1.670;2022-10-23T15:29:33;7.47;;;0.50;;
75236;SDS011;63826;48.100;-1.670;2022-10-23T15:31:59;5.22;;;0.40;;
75236;SDS011;63826;48.100;-1.670;2022-10-23T15:34:26;6.32;;;0.52;;
75236;SDS011;63826;48.100;-1.670;2022-10-23T15:36:53;6.32;;;0.50;;
75236;SDS011;63826;48.100;-1.670;2022-10-23T15:39:20;5.93;;;0.60;;
75236;SDS011;63826;48.100;-1.670;2022-10-23T15:41:47;7.22;;;0.70;;
75236;SDS011;63826;48.100;-1.670;2022-10-23T15:44:15;3.95;;;0.30;;
75236;SDS011;63826;48.100;-1.670;2022-10-23T15:46:41;6.95;;;0.50;;
75236;SDS011;63826;48.100;-1.670;2022-10-23T15:49:08;5.53;;;0.50;;
75236;SDS011;63826;48.100;-1.670;2022-10-23T15:51:34;5.27;;;0.60;;
75236;SDS011;63826;48.100;-1.670;2022-10-23T15:54:01;4.75;;;0.75;;
75236;SDS011;63826;48.100;-1.670;2022-10-23T15:56:27;5.57;;;0.60;;
75236;SDS011;63826;48.100;-1.670;2022-10-23T15:58:53;5.85;;;0.52;;
75236;SDS011;63826;48.100;-1.670;2022-10-23T16:04:23;7.57;;;0.65;;
75236;SDS011;63826;48.100;-1.670;2022-10-23T16:06:49;6.38;;;0.80;;
75236;SDS011;63826;48.100;-1.670;2022-10-23T16:09:16;6.25;;;0.73;;
75236;SDS011;63826;48.100;-1.670;2022-10-23T16:11:42;6.00;;;0.60;;
75236;SDS011;63826;48.100;-1.670;2022-10-23T16:14:10;5.90;;;0.50;;
75236;SDS011;63826;48.100;-1.670;2022-10-23T16:16:36;6.00;;;0.70;;
75236;SDS011;63826;48.100;-1.670;2022-10-23T16:19:03;7.25;;;0.80;;
75236;SDS011;63826;48.100;-1.670;2022-10-23T16:21:30;5.95;;;0.73;;
75236;SDS011;63826;48.100;-1.670;2022-10-23T16:23:57;5.75;;;0.60;;
75236;SDS011;63826;48.100;-1.670;2022-10-23T16:26:24;7.00;;;0.60;;
75236;SDS011;63826;48.100;-1.670;2022-10-23T16:28:51;6.07;;;0.80;;
75236;SDS011;63826;48.100;-1.670;2022-10-23T16:31:18;6.13;;;0.60;;
75236;SDS011;63826;48.100;-1.670;2022-10-23T16:33:44;4.82;;;0.60;;
75236;SDS011;63826;48.100;-1.670;2022-10-23T16:36:10;10.68;;;1.02;;
75236;SDS011;63826;48.100;-1.670;2022-10-23T16:38:36;5.10;;;0.70;;
75236;SDS011;63826;48.100;-1.670;2022-10-23T16:41:03;6.88;;;0.75;;